createdAt,value
2018-09-28T00:01:04.022Z,51.67
2018-09-28T00:03:10.280Z,51.47
2018-09-28T00:05:16.393Z,51.69
2018-09-28T00:07:22.530Z,51.78
2018-09-28T00:09:29.432Z,51.54
2018-09-28T00:11:37.299Z,51.63
2018-09-28T00:13:43.368Z,52.04
2018-09-28T00:15:51.829Z,52.15
2018-09-28T00:17:58.396Z,52.59
2018-09-28T00:20:06.575Z,51.90
2018-09-28T00:22:13.372Z,52.20
2018-09-28T00:24:19.492Z,52.16
2018-09-28T00:26:25.761Z,52.01
2018-09-28T00:28:31.865Z,52.09
2018-09-28T00:30:37.965Z,52.09
2018-09-28T00:32:44.647Z,51.84
2018-09-28T00:34:50.979Z,52.69
2018-09-28T00:36:57.056Z,52.09
2018-09-28T00:39:03.284Z,52.68
2018-09-28T00:41:09.382Z,52.13
2018-09-28T00:43:15.561Z,52.31
2018-09-28T00:45:21.691Z,52.65
2018-09-28T00:47:27.868Z,52.49
2018-09-28T00:49:40.569Z,52.36
2018-09-28T00:51:46.647Z,52.73
2018-09-28T00:53:53.311Z,52.21
2018-09-28T00:55:59.410Z,52.77
2018-09-28T00:58:07.958Z,52.44
2018-09-28T01:00:14.310Z,52.55
2018-09-28T01:02:20.500Z,52.18
2018-09-28T01:04:27.687Z,52.53
2018-09-28T01:06:33.840Z,52.28
2018-09-28T01:08:40.231Z,53.13
2018-09-28T01:10:46.980Z,52.76
2018-09-28T01:12:53.172Z,52.24
2018-09-28T01:14:59.464Z,52.49
2018-09-28T01:17:06.733Z,52.89
2018-09-28T01:19:13.539Z,53.19
2018-09-28T01:21:19.665Z,53.17
2018-09-28T01:23:25.874Z,52.60
2018-09-28T01:25:32.758Z,52.50
2018-09-28T01:27:38.987Z,53.04
2018-09-28T01:29:45.148Z,53.04
2018-09-28T01:31:51.462Z,53.21
2018-09-28T01:33:57.601Z,53.28
2018-09-28T01:36:03.829Z,52.43
2018-09-28T01:38:10.005Z,53.42
2018-09-28T01:40:16.183Z,53.38
2018-09-28T01:42:22.253Z,52.55
2018-09-28T01:44:28.328Z,52.70
2018-09-28T01:46:34.457Z,52.43
2018-09-28T01:48:40.659Z,52.74
2018-09-28T01:50:46.968Z,52.69
2018-09-28T01:52:53.243Z,53.02
2018-09-28T01:54:59.359Z,53.11
2018-09-28T01:57:05.505Z,52.90
2018-09-28T01:59:11.732Z,52.84
2018-09-28T02:01:18.497Z,53.36
2018-09-28T02:03:24.697Z,52.82
2018-09-28T02:05:30.812Z,52.86
2018-09-28T02:07:36.919Z,53.54
2018-09-28T02:09:43.105Z,53.19
2018-09-28T02:11:49.181Z,53.00
2018-09-28T02:13:55.360Z,52.71
2018-09-28T02:16:01.518Z,52.71
2018-09-28T02:18:07.848Z,52.80
2018-09-28T02:20:13.953Z,53.49
2018-09-28T02:22:20.115Z,53.58
2018-09-28T02:24:26.253Z,53.03
2018-09-28T02:26:32.443Z,53.05
2018-09-28T02:28:39.813Z,53.16
2018-09-28T02:30:46.718Z,52.78
2018-09-28T02:32:53.623Z,53.37
2018-09-28T02:35:00.872Z,53.46
2018-09-28T02:37:08.724Z,53.40
2018-09-28T02:39:15.773Z,53.69
2018-09-28T02:41:21.849Z,53.40
2018-09-28T02:43:28.289Z,53.14
2018-09-28T02:45:34.359Z,52.82
2018-09-28T02:47:40.929Z,53.04
2018-09-28T02:49:47.021Z,52.83
2018-09-28T02:51:53.111Z,53.70
2018-09-28T02:53:59.234Z,53.09
2018-09-28T02:56:05.368Z,53.51
2018-09-28T02:58:13.200Z,53.73
2018-09-28T03:00:20.081Z,53.75
2018-09-28T03:02:26.307Z,53.07
2018-09-28T03:04:33.124Z,53.12
2018-09-28T03:06:39.291Z,53.13
2018-09-28T03:08:45.524Z,53.72
2018-09-28T03:10:51.871Z,52.85
2018-09-28T03:12:58.489Z,52.92
2018-09-28T03:15:04.855Z,53.17
2018-09-28T03:17:10.967Z,53.80
2018-09-28T03:19:17.121Z,53.42
2018-09-28T03:21:23.350Z,53.85
2018-09-28T03:23:29.655Z,53.70
2018-09-28T03:25:35.797Z,54.04
2018-09-28T03:27:41.890Z,53.88
2018-09-28T03:29:48.047Z,54.07
2018-09-28T03:31:54.168Z,53.45
2018-09-28T03:34:00.500Z,53.98
2018-09-28T03:36:07.615Z,54.11
2018-09-28T03:38:13.681Z,53.98
2018-09-28T03:40:20.045Z,53.29
2018-09-28T03:42:26.115Z,54.13
2018-09-28T03:44:32.517Z,53.61
2018-09-28T03:46:38.673Z,53.98
2018-09-28T03:48:44.752Z,54.00
2018-09-28T03:50:50.965Z,53.84
2018-09-28T03:52:57.860Z,53.65
2018-09-28T03:55:04.030Z,53.95
2018-09-28T03:57:10.264Z,54.18
2018-09-28T03:59:16.420Z,53.98
2018-09-28T04:01:22.552Z,54.08
2018-09-28T04:03:28.716Z,53.76
2018-09-28T04:05:34.802Z,54.30
2018-09-28T04:07:42.440Z,53.66
2018-09-28T04:09:49.221Z,54.14
2018-09-28T04:11:55.511Z,54.25
2018-09-28T04:14:03.837Z,53.86
2018-09-28T04:16:10.167Z,53.86
2018-09-28T04:18:16.317Z,54.19
2018-09-28T04:20:23.067Z,53.95
2018-09-28T04:22:29.162Z,53.93
2018-09-28T04:24:35.297Z,54.07
2018-09-28T04:26:41.509Z,54.43
2018-09-28T04:28:48.207Z,54.54
2018-09-28T04:30:54.334Z,54.65
2018-09-28T04:33:01.602Z,53.79
2018-09-28T04:35:07.807Z,54.22
2018-09-28T04:37:13.919Z,54.53
2018-09-28T04:39:20.369Z,53.90
2018-09-28T04:41:27.274Z,54.06
2018-09-28T04:43:34.792Z,54.12
2018-09-28T04:45:41.085Z,54.59
2018-09-28T04:47:48.427Z,54.54
2018-09-28T04:49:54.809Z,54.12
2018-09-28T04:52:01.053Z,54.52
2018-09-28T04:54:07.341Z,54.16
2018-09-28T04:56:13.806Z,54.41
2018-09-28T04:58:19.931Z,55.04
2018-09-28T05:00:27.154Z,54.77
2018-09-28T05:02:33.303Z,54.81
2018-09-28T05:04:39.965Z,55.00
2018-09-28T05:06:46.757Z,54.71
2018-09-28T05:08:53.630Z,54.62
2018-09-28T05:11:00.465Z,54.68
2018-09-28T05:13:06.663Z,54.52
2018-09-28T05:15:12.815Z,54.96
2018-09-28T05:17:19.749Z,54.75
2018-09-28T05:19:26.241Z,55.10
2018-09-28T05:21:32.281Z,54.64
2018-09-28T05:23:38.470Z,54.67
2018-09-28T05:25:44.716Z,55.29
2018-09-28T05:27:50.835Z,55.35
2018-09-28T05:29:58.493Z,55.35
2018-09-28T05:32:05.199Z,55.14
2018-09-28T05:34:12.146Z,55.43
2018-09-28T05:36:19.687Z,55.52
2018-09-28T05:38:26.504Z,55.05
2018-09-28T05:40:33.038Z,55.15
2018-09-28T05:42:40.956Z,54.81
2018-09-28T05:44:47.399Z,55.58
2018-09-28T05:46:56.747Z,55.37
2018-09-28T05:49:04.360Z,55.13
2018-09-28T05:51:10.508Z,54.95
2018-09-28T05:53:17.066Z,55.54
2018-09-28T05:55:23.954Z,55.90
2018-09-28T05:57:31.297Z,55.32
2018-09-28T05:59:42.624Z,55.31
2018-09-28T06:01:53.856Z,55.81
2018-09-28T06:04:05.064Z,56.00
2018-09-28T06:06:11.255Z,56.12
2018-09-28T06:08:17.564Z,55.98
2018-09-28T06:10:23.938Z,55.80
2018-09-28T06:12:33.252Z,56.33
2018-09-28T06:14:41.927Z,56.54
2018-09-28T06:16:48.357Z,56.51
2018-09-28T06:18:54.970Z,56.53
2018-09-28T06:21:01.455Z,56.02
2018-09-28T06:23:08.296Z,56.35
2018-09-28T06:25:16.639Z,56.25
2018-09-28T06:27:24.268Z,56.48
2018-09-28T06:29:30.361Z,56.04
2018-09-28T06:31:36.877Z,56.00
2018-09-28T06:33:43.492Z,55.75
2018-09-28T06:35:49.673Z,55.75
2018-09-28T06:37:56.531Z,56.61
2018-09-28T06:40:02.740Z,56.40
2018-09-28T06:42:08.898Z,55.80
2018-09-28T06:44:15.498Z,55.88
2018-09-28T06:46:21.696Z,56.35
2018-09-28T06:48:27.872Z,56.88
2018-09-28T06:50:34.743Z,56.51
2018-09-28T06:52:41.055Z,56.73
2018-09-28T06:54:47.284Z,56.12
2018-09-28T06:56:55.843Z,57.07
2018-09-28T06:59:02.038Z,57.12
2018-09-28T07:01:08.356Z,56.57
2018-09-28T07:03:14.474Z,57.24
2018-09-28T07:05:20.608Z,57.36
2018-09-28T07:07:26.753Z,57.30
2018-09-28T07:09:33.017Z,57.38
2018-09-28T07:13:45.717Z,56.78
2018-09-28T07:15:51.855Z,57.30
2018-09-28T07:17:58.715Z,57.33
2018-09-28T07:20:05.010Z,56.73
2018-09-28T07:22:11.980Z,56.72
2018-09-28T07:24:18.235Z,56.80
2018-09-28T07:26:25.000Z,57.65
2018-09-28T07:28:31.146Z,57.14
2018-09-28T07:30:37.604Z,57.21
2018-09-28T07:32:44.716Z,57.76
2018-09-28T07:34:51.629Z,57.01
2018-09-28T07:36:57.870Z,57.70
2018-09-28T07:39:05.780Z,57.55
2018-09-28T07:41:11.911Z,57.82
2018-09-28T07:43:18.076Z,57.10
2018-09-28T07:45:24.418Z,57.64
2018-09-28T07:47:30.683Z,57.32
2018-09-28T07:49:36.836Z,57.11
2018-09-28T07:51:42.945Z,57.47
2018-09-28T07:53:49.200Z,57.96
2018-09-28T07:55:55.391Z,57.28
2018-09-28T07:58:01.691Z,56.69
2018-09-28T08:00:07.938Z,56.85
2018-09-28T08:02:14.946Z,56.62
2018-09-28T08:04:21.062Z,56.22
2018-09-28T08:06:27.175Z,56.32
2018-09-28T08:08:33.334Z,56.58
2018-09-28T08:10:39.541Z,56.20
2018-09-28T08:12:45.725Z,55.92
2018-09-28T08:14:51.919Z,55.91
2018-09-28T08:16:58.534Z,56.19
2018-09-28T08:19:06.662Z,56.31
2018-09-28T08:21:12.815Z,56.08
2018-09-28T08:23:18.960Z,55.22
2018-09-28T08:25:25.086Z,55.74
2018-09-28T08:27:31.337Z,55.53
2018-09-28T08:29:39.328Z,55.74
2018-09-28T08:31:45.537Z,55.54
2018-09-28T08:33:51.842Z,54.89
2018-09-28T08:35:58.407Z,54.71
2018-09-28T08:38:04.625Z,54.99
2018-09-28T08:40:11.139Z,54.40
2018-09-28T08:42:18.459Z,54.08
2018-09-28T08:44:24.574Z,54.71
2018-09-28T08:46:32.723Z,54.31
2018-09-28T08:48:39.088Z,54.34
2018-09-28T08:50:45.266Z,54.70
2018-09-28T08:52:51.411Z,54.44
2018-09-28T08:54:57.707Z,54.28
2018-09-28T08:57:05.050Z,54.24
2018-09-28T08:59:11.423Z,53.46
2018-09-28T09:01:17.840Z,53.80
2018-09-28T09:03:24.131Z,53.94
2018-09-28T09:05:30.892Z,53.62
2018-09-28T09:07:37.026Z,53.56
2018-09-28T09:09:43.187Z,53.98
2018-09-28T09:11:49.331Z,53.24
2018-09-28T09:13:55.468Z,53.83
2018-09-28T09:16:01.730Z,53.79
2018-09-28T09:18:08.000Z,53.13
2018-09-28T09:20:14.350Z,53.62
2018-09-28T09:22:20.460Z,53.67
2018-09-28T09:24:26.802Z,53.36
2018-09-28T09:26:32.944Z,53.80
2018-09-28T09:28:39.153Z,52.85
2018-09-28T09:30:45.517Z,52.66
2018-09-28T09:32:52.344Z,53.46
2018-09-28T09:34:58.477Z,53.22
2018-09-28T09:37:06.740Z,53.23
2018-09-28T09:39:13.341Z,52.44
2018-09-28T09:41:19.475Z,53.20
2018-09-28T09:43:26.266Z,52.83
2018-09-28T09:45:32.338Z,53.13
2018-09-28T09:47:38.527Z,52.42
2018-09-28T09:49:44.678Z,52.80
2018-09-28T09:51:50.913Z,52.12
2018-09-28T09:53:57.152Z,52.05
2018-09-28T09:56:03.404Z,52.26
2018-09-28T09:58:09.615Z,52.92
2018-09-28T10:00:21.096Z,52.03
2018-09-28T10:02:32.605Z,51.96
2018-09-28T10:04:38.868Z,51.77
2018-09-28T10:06:47.070Z,52.49
2018-09-28T10:08:53.274Z,51.90
2018-09-28T10:10:59.445Z,52.43
2018-09-28T10:13:05.600Z,51.59
2018-09-28T10:15:12.897Z,51.65
2018-09-28T10:17:19.127Z,51.53
2018-09-28T10:19:25.276Z,51.16
2018-09-28T10:21:32.415Z,51.45
2018-09-28T10:23:39.243Z,51.25
2018-09-28T10:25:46.384Z,51.83
2018-09-28T10:27:53.424Z,51.15
2018-09-28T10:29:59.544Z,51.61
2018-09-28T10:32:05.737Z,51.42
2018-09-28T10:34:11.909Z,51.36
2018-09-28T10:36:18.038Z,50.88
2018-09-28T10:38:24.176Z,50.62
2018-09-28T10:40:30.315Z,50.79
2018-09-28T10:42:36.453Z,50.08
2018-09-28T10:44:42.586Z,50.17
2018-09-28T10:46:48.792Z,50.82
2018-09-28T10:48:55.021Z,50.87
2018-09-28T10:51:01.174Z,49.98
2018-09-28T10:53:07.485Z,49.93
2018-09-28T10:55:13.561Z,49.64
2018-09-28T10:57:19.712Z,50.16
2018-09-28T10:59:25.851Z,50.23
2018-09-28T11:01:33.651Z,50.07
2018-09-28T11:03:40.363Z,49.70
2018-09-28T11:05:46.948Z,49.68
2018-09-28T11:07:53.083Z,49.98
2018-09-28T11:09:59.272Z,49.93
2018-09-28T11:12:05.421Z,49.81
2018-09-28T11:14:12.249Z,48.96
2018-09-28T11:16:18.416Z,49.31
2018-09-28T11:18:24.577Z,49.10
2018-09-28T11:20:32.364Z,48.91
2018-09-28T11:22:38.505Z,49.29
2018-09-28T11:24:45.068Z,48.53
2018-09-28T11:26:51.528Z,48.44
2018-09-28T11:28:57.941Z,49.06
2018-09-28T11:31:04.545Z,48.32
2018-09-28T11:33:13.250Z,48.72
2018-09-28T11:35:19.479Z,48.12
2018-09-28T11:37:26.049Z,48.54
2018-09-28T11:39:32.433Z,48.50
2018-09-28T11:41:38.648Z,47.59
2018-09-28T11:43:45.037Z,48.34
2018-09-28T11:45:51.419Z,47.77
2018-09-28T11:47:57.409Z,47.33
2018-09-28T11:50:03.753Z,47.40
2018-09-28T11:52:10.228Z,47.35
2018-09-28T11:54:16.431Z,47.52
2018-09-28T11:56:22.865Z,46.66
2018-09-28T11:58:29.310Z,46.07
2018-09-28T12:00:36.884Z,46.03
2018-09-28T12:02:43.109Z,46.39
2018-09-28T12:04:49.344Z,46.36
2018-09-28T12:06:55.731Z,45.65
2018-09-28T12:09:01.911Z,46.39
2018-09-28T12:11:08.333Z,46.03
2018-09-28T12:13:15.014Z,46.08
2018-09-28T12:15:21.238Z,45.00
2018-09-28T12:17:27.545Z,45.53
2018-09-28T12:19:33.847Z,44.19
2018-09-28T12:21:40.064Z,45.08
2018-09-28T12:23:46.196Z,44.56
2018-09-28T12:25:52.387Z,44.08
2018-09-28T12:27:59.266Z,43.71
2018-09-28T12:30:05.646Z,44.10
2018-09-28T12:32:15.134Z,43.61
2018-09-28T12:34:21.359Z,43.65
2018-09-28T12:36:27.781Z,42.77
2018-09-28T12:38:34.065Z,42.73
2018-09-28T12:40:40.780Z,43.09
2018-09-28T12:42:47.841Z,42.95
2018-09-28T12:44:53.991Z,42.66
2018-09-28T12:47:00.196Z,41.56
2018-09-28T12:49:07.256Z,41.25
2018-09-28T12:51:14.039Z,41.84
2018-09-28T12:53:20.282Z,40.89
2018-09-28T12:55:27.461Z,41.15
2018-09-28T12:57:33.653Z,41.42
2018-09-28T12:59:39.831Z,40.43
2018-09-28T13:01:46.774Z,40.54
2018-09-28T13:03:53.037Z,40.56
2018-09-28T13:05:59.795Z,40.99
2018-09-28T13:08:06.199Z,40.11
2018-09-28T13:10:12.826Z,40.64
2018-09-28T13:12:19.269Z,39.72
2018-09-28T13:14:25.638Z,39.86
2018-09-28T13:16:31.787Z,39.76
2018-09-28T13:18:38.292Z,39.48
2018-09-28T13:20:44.881Z,40.02
2018-09-28T13:22:51.100Z,39.33
2018-09-28T13:24:57.344Z,39.92
2018-09-28T13:27:04.242Z,39.79
2018-09-28T13:29:11.101Z,39.79
2018-09-28T13:31:17.908Z,38.81
2018-09-28T13:33:24.505Z,38.79
2018-09-28T13:35:30.806Z,39.13
2018-09-28T13:37:36.952Z,38.42
2018-09-28T13:39:43.680Z,38.90
2018-09-28T13:41:50.761Z,38.59
2018-09-28T13:43:57.927Z,38.65
2018-09-28T13:46:04.447Z,38.56
2018-09-28T13:48:11.391Z,39.28
2018-09-28T13:50:17.645Z,38.98
2018-09-28T13:52:24.869Z,38.87
2018-09-28T13:54:31.905Z,38.39
2018-09-28T13:56:38.153Z,38.05
2018-09-28T13:58:44.365Z,38.79
2018-09-28T14:00:51.045Z,37.93
2018-09-28T14:02:57.274Z,38.63
2018-09-28T14:05:07.186Z,38.64
2018-09-28T14:07:15.394Z,37.90
2018-09-28T14:09:21.393Z,37.31
2018-09-28T14:11:27.923Z,38.14
2018-09-28T14:13:34.461Z,38.37
2018-09-28T14:15:40.664Z,37.68
2018-09-28T14:17:47.108Z,37.59
2018-09-28T14:19:54.196Z,37.29
2018-09-28T14:22:00.725Z,37.12
2018-09-28T14:24:07.017Z,37.00
2018-09-28T14:26:13.401Z,37.74
2018-09-28T14:28:20.442Z,37.56
2018-09-28T14:30:26.785Z,36.84
2018-09-28T14:32:32.891Z,37.46
2018-09-28T14:34:39.126Z,37.34
2018-09-28T14:36:45.400Z,37.45
2018-09-28T14:38:52.425Z,36.50
2018-09-28T14:40:58.647Z,36.51
2018-09-28T14:43:04.821Z,37.02
2018-09-28T14:45:11.665Z,37.19
2018-09-28T14:47:17.849Z,36.27
2018-09-28T14:49:24.096Z,36.73
2018-09-28T14:51:30.160Z,35.79
2018-09-28T14:53:36.677Z,36.61
2018-09-28T14:55:43.088Z,36.35
2018-09-28T14:57:49.278Z,36.09
2018-09-28T14:59:55.595Z,35.43
2018-09-28T15:02:01.862Z,35.92
2018-09-28T15:04:08.068Z,35.12
2018-09-28T15:06:14.242Z,35.28
2018-09-28T15:08:20.622Z,35.65
2018-09-28T15:10:27.157Z,34.99
2018-09-28T15:12:33.370Z,35.53
2018-09-28T15:14:39.692Z,35.22
2018-09-28T15:16:45.994Z,35.09
2018-09-28T15:18:53.208Z,35.54
2018-09-28T15:20:59.552Z,35.31
2018-09-28T15:23:06.003Z,34.44
2018-09-28T15:25:12.727Z,35.19
2018-09-28T15:27:19.234Z,33.97
2018-09-28T15:31:36.299Z,34.48
2018-09-28T15:33:42.531Z,33.77
2018-09-28T15:35:48.731Z,33.71
2018-09-28T15:37:55.076Z,34.55
2018-09-28T15:40:01.227Z,33.88
2018-09-28T15:42:07.773Z,33.65
2018-09-28T15:44:14.033Z,34.60
2018-09-28T15:46:20.485Z,34.66
2018-09-28T15:48:26.555Z,34.59
2018-09-28T15:50:33.128Z,33.92
2018-09-28T15:52:39.450Z,34.07
2018-09-28T15:54:45.785Z,34.12
2018-09-28T15:56:52.043Z,34.58
2018-09-28T15:58:58.100Z,33.84
2018-09-28T16:01:04.376Z,34.36
2018-09-28T16:03:11.237Z,34.47
2018-09-28T16:05:17.585Z,34.36
2018-09-28T16:07:23.808Z,33.55
2018-09-28T16:09:29.969Z,33.62
2018-09-28T16:11:36.391Z,34.15
2018-09-28T16:13:42.564Z,33.69
2018-09-28T16:15:48.730Z,34.58
2018-09-28T16:17:54.923Z,33.86
2018-09-28T16:20:01.243Z,34.24
2018-09-28T16:22:07.558Z,34.12
2018-09-28T16:24:13.853Z,34.76
2018-09-28T16:26:19.987Z,35.26
2018-09-28T16:28:26.315Z,35.55
2018-09-28T16:34:53.535Z,36.56
2018-09-28T16:36:59.774Z,36.05
2018-09-28T16:39:08.785Z,37.24
2018-09-28T16:41:15.115Z,37.60
2018-09-28T16:43:21.418Z,38.18
2018-09-28T16:45:27.788Z,38.59
2018-09-28T16:47:33.993Z,38.30
2018-09-28T16:49:40.129Z,39.34
2018-09-28T16:51:46.395Z,39.73
2018-09-28T16:53:52.827Z,39.53
2018-09-28T16:55:58.969Z,40.56
2018-09-28T16:58:05.344Z,40.47
2018-09-28T17:00:11.782Z,39.93
2018-09-28T17:02:18.168Z,41.24
2018-09-28T17:04:24.369Z,41.32
2018-09-28T17:06:30.739Z,41.43
2018-09-28T17:08:37.693Z,41.75
2018-09-28T17:10:43.862Z,40.98
2018-09-28T17:12:50.436Z,41.17
2018-09-28T17:14:56.802Z,41.63
2018-09-28T17:17:06.688Z,42.06
2018-09-28T17:19:12.917Z,41.42
2018-09-28T17:21:19.223Z,42.06
2018-09-28T17:23:25.488Z,42.14
2018-09-28T17:25:32.299Z,42.23
2018-09-28T17:27:38.462Z,42.03
2018-09-28T17:29:44.765Z,42.95
2018-09-28T17:31:51.020Z,43.11
2018-09-28T17:34:03.397Z,43.45
2018-09-28T17:36:11.262Z,43.09
2018-09-28T17:38:17.514Z,43.31
2018-09-28T17:40:23.810Z,43.41
2018-09-28T17:42:30.196Z,43.81
2018-09-28T17:44:36.389Z,43.65
2018-09-28T17:46:42.607Z,43.53
2018-09-28T17:48:48.885Z,43.98
2018-09-28T17:50:55.215Z,43.75
2018-09-28T17:53:01.625Z,44.20
2018-09-28T17:55:07.904Z,44.79
2018-09-28T17:57:14.137Z,44.55
2018-09-28T17:59:20.363Z,45.14
2018-09-28T18:01:26.658Z,44.57
2018-09-28T18:03:32.877Z,44.99
2018-09-28T18:05:39.148Z,44.51
2018-09-28T18:07:45.789Z,45.25
2018-09-28T18:09:52.027Z,44.95
2018-09-28T18:11:59.033Z,46.12
2018-09-28T18:14:05.293Z,46.14
2018-09-28T18:16:12.043Z,46.14
2018-09-28T18:18:18.235Z,47.06
2018-09-28T18:20:24.458Z,47.29
2018-09-28T18:22:30.719Z,47.38
2018-09-28T18:24:36.993Z,48.00
2018-09-28T18:26:43.174Z,47.60
2018-09-28T18:28:49.384Z,48.33
2018-09-28T18:30:55.534Z,48.17
2018-09-28T18:33:01.821Z,48.61
2018-09-28T18:35:08.189Z,48.52
2018-09-28T18:37:14.952Z,48.59
2018-09-28T18:39:21.430Z,48.01
2018-09-28T18:41:27.691Z,48.84
2018-09-28T18:43:33.891Z,48.29
2018-09-28T18:45:40.050Z,48.09
2018-09-28T18:47:46.257Z,48.77
2018-09-28T18:49:52.481Z,47.67
2018-09-28T18:51:58.689Z,48.16
2018-09-28T18:54:04.864Z,48.78
2018-09-28T18:56:11.123Z,48.73
2018-09-28T18:58:17.266Z,48.24
2018-09-28T19:00:23.523Z,48.30
2018-09-28T19:02:29.884Z,49.09
2018-09-28T19:04:36.200Z,48.30
2018-09-28T19:06:42.462Z,48.55
2018-09-28T19:08:48.680Z,48.52
2018-09-28T19:10:54.971Z,48.32
2018-09-28T19:13:01.285Z,48.68
2018-09-28T19:15:07.993Z,48.28
2018-09-28T19:17:14.219Z,48.93
2018-09-28T19:19:20.451Z,48.82
2018-09-28T19:21:26.672Z,48.46
2018-09-28T19:23:32.836Z,48.76
2018-09-28T19:25:39.246Z,48.58
2018-09-28T19:27:45.386Z,49.31
2018-09-28T19:29:51.654Z,49.12
2018-09-28T19:31:57.818Z,48.41
2018-09-28T19:34:04.065Z,48.31
2018-09-28T19:36:10.249Z,49.14
2018-09-28T19:38:16.446Z,48.83
2018-09-28T19:40:22.709Z,48.38
2018-09-28T19:42:28.908Z,48.87
2018-09-28T19:44:35.078Z,49.00
2018-09-28T19:46:41.372Z,48.04
2018-09-28T19:48:47.622Z,48.84
2018-09-28T19:50:53.829Z,48.74
2018-09-28T19:53:00.094Z,48.44
2018-09-28T19:55:06.348Z,48.20
2018-09-28T19:57:12.577Z,48.67
2018-09-28T19:59:18.758Z,48.63
2018-09-28T20:01:24.988Z,48.48
2018-09-28T20:03:31.171Z,48.50
2018-09-28T20:05:37.377Z,47.89
2018-09-28T20:07:43.756Z,48.34
2018-09-28T20:09:50.002Z,48.74
2018-09-28T20:11:56.221Z,47.90
2018-09-28T20:14:02.464Z,47.97
2018-09-28T20:16:08.597Z,47.73
2018-09-28T20:18:14.728Z,47.90
2018-09-28T20:20:20.899Z,48.18
2018-09-28T20:22:27.074Z,48.31
2018-09-28T20:24:33.244Z,47.86
2018-09-28T20:26:39.529Z,48.21
2018-09-28T20:28:45.843Z,47.96
2018-09-28T20:30:51.984Z,47.39
2018-09-28T20:32:58.139Z,48.20
2018-09-28T20:35:04.312Z,47.52
2018-09-28T20:37:10.486Z,48.59
2018-09-28T20:39:16.625Z,47.41
2018-09-28T20:41:22.806Z,47.31
2018-09-28T20:43:29.622Z,47.41
2018-09-28T20:45:35.752Z,47.25
2018-09-28T20:47:42.201Z,47.47
2018-09-28T20:49:48.459Z,47.35
2018-09-28T20:51:54.644Z,47.51
2018-09-28T20:54:01.310Z,47.89
2018-09-28T20:56:07.503Z,47.30
2018-09-28T20:58:13.716Z,48.01
2018-09-28T21:00:19.879Z,47.97
2018-09-28T21:02:26.181Z,48.15
2018-09-28T21:04:32.413Z,47.05
2018-09-28T21:06:38.590Z,47.19
2018-09-28T21:08:44.758Z,46.91
2018-09-28T21:10:50.943Z,47.55
2018-09-28T21:12:57.103Z,47.73
2018-09-28T21:15:03.290Z,46.75
2018-09-28T21:17:09.602Z,46.69
2018-09-28T21:19:15.779Z,46.66
2018-09-28T21:21:21.926Z,47.58
2018-09-28T21:23:28.268Z,46.73
2018-09-28T21:25:34.359Z,47.39
2018-09-28T21:27:40.522Z,47.38
2018-09-28T21:29:46.659Z,47.39
2018-09-28T21:31:52.838Z,47.42
2018-09-28T21:33:59.010Z,46.71
2018-09-28T21:36:05.349Z,46.69
2018-09-28T21:38:11.513Z,46.43
2018-09-28T21:40:17.682Z,46.59
2018-09-28T21:42:23.978Z,46.37
2018-09-28T21:44:30.275Z,46.83
2018-09-28T21:46:36.559Z,46.89
2018-09-28T21:48:42.705Z,46.17
2018-09-28T21:50:48.892Z,47.20
2018-09-28T21:52:55.200Z,46.94
2018-09-28T21:55:01.334Z,45.98
2018-09-28T21:57:07.552Z,46.64
2018-09-28T21:59:13.713Z,46.28
2018-09-28T22:01:20.575Z,46.16
2018-09-28T22:03:26.956Z,46.29
2018-09-28T22:05:33.072Z,46.44
2018-09-28T22:07:39.350Z,46.27
2018-09-28T22:09:45.472Z,46.74
2018-09-28T22:11:51.650Z,46.78
2018-09-28T22:13:57.970Z,46.88
2018-09-28T22:16:04.301Z,46.93
2018-09-28T22:18:10.687Z,46.38
2018-09-28T22:20:16.788Z,47.01
2018-09-28T22:22:22.943Z,46.00
2018-09-28T22:24:29.097Z,46.03
2018-09-28T22:26:35.212Z,46.24
2018-09-28T22:28:41.284Z,45.91
2018-09-28T22:30:47.335Z,46.23
2018-09-28T22:32:53.433Z,46.02
2018-09-28T22:34:59.670Z,46.54
2018-09-28T22:37:06.408Z,45.94
2018-09-28T22:39:12.988Z,46.71
2018-09-28T22:41:19.195Z,46.63
2018-09-28T22:43:25.422Z,46.90
2018-09-28T22:45:31.551Z,46.57
2018-09-28T22:47:37.737Z,45.93
2018-09-28T22:49:43.855Z,46.08
2018-09-28T22:51:49.941Z,46.56
2018-09-28T22:53:56.102Z,46.42
2018-09-28T22:56:02.244Z,45.83
2018-09-28T22:58:08.430Z,46.14
2018-09-28T23:00:14.549Z,45.46
2018-09-28T23:02:20.626Z,45.62
2018-09-28T23:04:26.885Z,45.96
2018-09-28T23:06:33.050Z,45.42
2018-09-28T23:08:39.216Z,45.19
2018-09-28T23:10:45.483Z,45.14
2018-09-28T23:12:57.426Z,45.56
2018-09-28T23:15:04.348Z,46.02
2018-09-28T23:17:10.553Z,45.60
2018-09-28T23:19:16.786Z,45.51
2018-09-28T23:21:23.555Z,45.29
2018-09-28T23:23:29.668Z,45.21
2018-09-28T23:25:35.778Z,45.30
2018-09-28T23:27:41.944Z,45.32
2018-09-28T23:29:48.033Z,45.54
2018-09-28T23:31:54.229Z,45.93
2018-09-28T23:34:00.333Z,44.95
2018-09-28T23:36:06.911Z,44.80
2018-09-28T23:38:13.032Z,44.91
2018-09-28T23:40:19.129Z,44.96
2018-09-28T23:42:26.249Z,44.71
2018-09-28T23:44:32.382Z,44.86
2018-09-28T23:46:38.744Z,45.06
2018-09-28T23:48:44.865Z,44.55
2018-09-28T23:50:50.960Z,45.41
2018-09-28T23:52:57.176Z,45.24
2018-09-28T23:55:03.324Z,44.73
2018-09-28T23:57:09.452Z,44.99
2018-09-28T23:59:15.684Z,44.39
